Flight Track Log - Related Links

Times and Time Zones

All times are in EDT time to prevent confusion due to time zone crossing. See the CTL78 flight status page for this flight to view local times or setup timezone preferences in your user account.

Time Position Orientation Groundspeed Altitude Reporting Facility
EDT Latitude Longitude Course Direction KTS MPH feet Rate Location/Type
Fri 03:54:53 PM 42.6622 -83.4406 23° Northeast 117 135 1,400  Level Cleveland Center
Fri 03:56:00 PM 42.7046 -83.4164 23° Northeast  Level FlightAware Approximate
Fri 04:03:00 PM 42.9708 -83.4445 321° Northwest  Level FlightAware Approximate
Fri 04:04:00 PM 43.0029 -83.4798 321° Northwest  Level FlightAware Approximate
Fri 04:05:00 PM 43.0349 -83.5152 321° Northwest  Level FlightAware Approximate
Fri 04:06:00 PM 43.0670 -83.5506 321° Northwest  Level FlightAware Approximate
Fri 04:07:00 PM 43.0990 -83.5860 321° Northwest  Level FlightAware Approximate
Fri 04:08:00 PM 43.1310 -83.6215 321° Northwest  Level FlightAware Approximate
Fri 04:09:00 PM 43.1630 -83.6570 321° Northwest  Level FlightAware Approximate
Fri 04:10:00 PM 43.1950 -83.6925 321° Northwest  Level FlightAware Approximate
Fri 04:11:00 PM 43.2266 -83.7287 318° Northwest  Level FlightAware Approximate
Fri 04:12:00 PM 43.2574 -83.7663 318° Northwest  Level FlightAware Approximate
Fri 04:13:00 PM 43.2881 -83.8038 318° Northwest  Level FlightAware Approximate
Fri 04:14:00 PM 43.3189 -83.8415 318° Northwest  Level FlightAware Approximate
Fri 04:15:00 PM 43.3496 -83.8791 318° Northwest  Level FlightAware Approximate
Fri 04:16:00 PM 43.3815 -83.9148 324° Northwest  Level FlightAware Approximate
Fri 04:17:00 PM 43.4148 -83.9481 324° Northwest  Level FlightAware Approximate
Fri 04:18:00 PM 43.4482 -83.9814 324° Northwest  Level FlightAware Approximate
Fri 04:19:00 PM 43.4815 -84.0148 324° Northwest  Level FlightAware Approximate
Fri 04:20:00 PM 43.5104 -84.0541 305° West  Level FlightAware Approximate
Fri 04:21:00 PM 43.5167 -84.0667 305° West  Level FlightAware Approximate
Fri 04:22:00 PM 43.5329 -84.0796 305° West  Level Estimated
Fri 04:23:00 PM 43.5329 -84.0796 305° West  Level Estimated
Fri 04:24:00 PM 43.5329 -84.0796 305° West  Level Estimated
Fri 04:25:00 PM 43.5329 -84.0796 305° West  Level Estimated

Login

Don't have an account? Register now (free) for customized features, flight alerts, and more!